CDT,Max TemperatureF,Mean TemperatureF,Min TemperatureF,Max Dew PointF,MeanDew PointF,Min DewpointF,Max Humidity, Mean Humidity, Min Humidity, Max Sea Level PressureIn, Mean Sea Level PressureIn, Min Sea Level PressureIn, Max VisibilityMiles, Mean VisibilityMiles, Min VisibilityMiles, Max Wind SpeedMPH, Mean Wind SpeedMPH, Max Gust SpeedMPH,PrecipitationIn, CloudCover, Events, WindDirDegrees
2013-5-1,93,73,52,64,61,46,87,61,34,30.02,29.78,29.63,10,9,1,37,14,47,0.68,3,Rain-Thunderstorm,117
2013-5-2,52,46,40,44,36,30,100,75,50,30.44,30.32,30.08,10,9,4,35,24,45,T,7,Rain,351
2013-5-3,68,51,33,34,25,17,70,43,15,30.43,30.25,30.00,10,10,10,20,9,32,0.00,0,,311
2013-5-4,78,60,42,30,26,24,62,38,14,30.03,29.97,29.90,10,10,9,16,7,21,0.00,0,,340
2013-5-5,74,58,42,45,38,21,76,50,24,30.18,30.08,30.01,10,10,10,16,7,20,0.00,0,,17
2013-5-6,71,60,49,61,47,44,89,64,38,30.09,30.05,29.99,10,10,7,15,7,18,0.04,1,Rain,146
2013-5-7,85,68,51,50,48,46,89,58,27,30.05,29.95,29.84,10,10,10,22,11,29,0.00,0,,156
2013-5-8,81,72,62,63,59,51,78,66,54,30.00,29.87,29.78,10,10,10,23,15,29,0.00,3,,173
2013-5-9,75,66,57,65,61,55,93,75,57,29.92,29.84,29.78,10,10,10,24,12,36,0.03,2,Rain-Thunderstorm,155
2013-5-10,77,66,55,60,56,52,100,72,43,30.07,29.99,29.89,10,10,9,31,8,37,T,2,Rain,359
2013-5-11,82,65,48,56,46,36,100,60,20,30.17,30.13,30.07,10,9,4,18,6,25,0.00,1,,32
2013-5-12,80,66,52,50,45,42,77,53,28,30.25,30.17,30.09,10,10,10,14,5,18,0.00,0,,143
2013-5-13,87,73,58,48,43,35,57,37,16,30.19,30.13,30.06,10,10,10,20,10,25,0.00,0,,186
2013-5-14,89,75,61,63,54,45,81,56,31,30.11,30.01,29.87,10,9,2,26,12,38,0.42,2,Rain-Hail-Thunderstorm,184
2013-5-15,89,77,64,65,60,52,93,62,31,29.97,29.84,29.65,10,10,6,37,13,48,0.22,4,Rain-Thunderstorm,190
2013-5-16,94,80,65,72,65,56,97,67,36,29.80,29.70,29.64,10,10,9,17,7,23,0.00,2,,153
2013-5-17,104,88,72,70,58,37,82,47,11,29.73,29.69,29.63,10,10,10,24,12,30,0.00,0,,178
2013-5-18,96,86,75,70,67,63,82,62,41,29.75,29.70,29.61,10,9,6,29,17,38,T,0,,164
2013-5-19,99,86,73,67,55,28,79,44,9,29.69,29.64,29.56,10,10,9,28,14,35,0.00,0,,191
2013-5-20,100,87,73,70,61,30,87,48,9,29.69,29.63,29.52,10,10,9,26,15,35,0.00,0,,183
2013-5-21,83,71,58,70,58,44,84,57,30,29.93,29.76,29.62,10,10,9,33,13,40,0.00,3,,109
2013-5-22,93,74,55,54,45,34,83,48,13,29.90,29.82,29.74,10,10,10,24,13,30,0.00,0,,154
2013-5-23,94,78,62,69,63,53,87,63,39,30.08,29.91,29.77,10,8,1,45,18,62,0.59,3,Rain-Thunderstorm,121
2013-5-24,82,75,68,66,60,53,84,65,46,30.06,30.00,29.89,10,10,10,28,14,37,0.00,2,,142
2013-5-25,85,76,67,67,65,62,93,72,51,30.12,30.02,29.91,10,10,10,25,15,30,T,5,,150
2013-5-26,92,82,71,68,64,58,90,61,32,30.00,29.91,29.82,10,10,10,25,16,33,0.00,1,,167
2013-5-27,91,81,71,68,66,63,84,64,44,29.92,29.79,29.66,10,10,10,31,19,35,0.00,3,,176
2013-5-28,83,78,72,70,66,64,82,69,55,29.85,29.72,29.57,10,10,10,41,19,51,T,2,Rain,166
2013-5-29,89,81,72,69,66,64,84,65,46,29.66,29.61,29.52,10,10,10,31,22,39,0.00,3,Thunderstorm,164
2013-5-30,97,84,70,70,66,56,93,60,27,29.76,29.65,29.58,10,10,6,36,18,47,0.02,2,Rain-Thunderstorm,177
2013-5-31,100,87,74,71,67,57,93,60,26,29.72,29.65,29.57,10,10,10,30,20,39,0.00,0,,184